createdAt,value
2018-02-04T00:00:26.301Z,2.50
2018-02-04T00:01:26.288Z,2.80
2018-02-04T00:02:26.272Z,2.30
2018-02-04T00:03:26.256Z,3.70
2018-02-04T00:04:26.245Z,2.80
2018-02-04T00:05:26.231Z,2.60
2018-02-04T00:06:26.210Z,2.80
2018-02-04T00:07:26.193Z,2.50
2018-02-04T00:08:26.178Z,3.70
2018-02-04T00:09:26.163Z,3.00
2018-02-04T00:10:26.148Z,3.50
2018-02-04T00:11:26.132Z,4.20
2018-02-04T00:12:26.117Z,4.80
2018-02-04T00:13:26.101Z,5.20
2018-02-04T00:14:26.085Z,4.80
2018-02-04T00:15:26.071Z,5.50
2018-02-04T00:16:26.058Z,4.60
2018-02-04T00:17:26.040Z,4.60
2018-02-04T00:18:26.025Z,5.00
2018-02-04T00:19:26.010Z,4.10
2018-02-04T00:20:25.994Z,4.10
2018-02-04T00:21:25.978Z,3.50
2018-02-04T00:22:25.963Z,4.10
2018-02-04T00:23:25.952Z,4.80
2018-02-04T00:24:25.933Z,3.60
2018-02-04T00:25:25.917Z,4.00
2018-02-04T00:26:25.903Z,4.20
2018-02-04T00:27:25.887Z,4.10
2018-02-04T00:28:25.871Z,4.20
2018-02-04T00:29:25.863Z,3.50
2018-02-04T00:30:25.863Z,3.50
2018-02-04T00:31:25.826Z,3.10
2018-02-04T00:32:25.820Z,3.70
2018-02-04T00:33:25.796Z,3.60
2018-02-04T00:34:25.785Z,4.30
2018-02-04T00:35:25.767Z,3.80
2018-02-04T00:36:25.753Z,4.00
2018-02-04T00:37:25.736Z,2.10
2018-02-04T00:38:25.722Z,2.90
2018-02-04T00:39:25.706Z,4.10
2018-02-04T00:40:25.691Z,3.90
2018-02-04T00:41:25.675Z,3.20
2018-02-04T00:42:25.663Z,3.50
2018-02-04T00:43:25.647Z,3.80
2018-02-04T00:44:25.634Z,3.50
2018-02-04T00:45:25.616Z,3.80
2018-02-04T00:46:25.602Z,2.30
2018-02-04T00:47:25.588Z,3.40
2018-02-04T00:48:25.574Z,3.70
2018-02-04T00:49:25.561Z,3.00
2018-02-04T00:50:25.544Z,3.30
2018-02-04T00:51:25.529Z,4.30
2018-02-04T00:52:25.514Z,3.50
2018-02-04T00:53:25.499Z,3.40
2018-02-04T00:54:25.485Z,3.80
2018-02-04T00:55:25.470Z,2.80
2018-02-04T00:56:25.456Z,3.20
2018-02-04T00:57:25.440Z,2.50
2018-02-04T00:58:25.425Z,4.60
2018-02-04T00:59:25.411Z,4.00
2018-02-04T01:00:25.397Z,3.20
2018-02-04T01:01:25.382Z,3.90
2018-02-04T01:02:25.368Z,4.10
2018-02-04T01:03:25.353Z,3.60
2018-02-04T01:04:25.340Z,3.50
2018-02-04T01:05:25.324Z,2.80
2018-02-04T01:06:25.310Z,3.90
2018-02-04T01:07:25.296Z,3.20
2018-02-04T01:08:25.281Z,3.40
2018-02-04T01:09:25.266Z,4.00
2018-02-04T01:10:25.253Z,3.00
2018-02-04T01:11:25.239Z,3.20
2018-02-04T01:12:25.225Z,4.00
2018-02-04T01:13:25.209Z,4.40
2018-02-04T01:14:25.194Z,4.00
2018-02-04T01:15:25.179Z,4.30
2018-02-04T01:16:25.167Z,4.30
2018-02-04T01:17:25.150Z,5.10
2018-02-04T01:18:25.135Z,4.90
2018-02-04T01:19:25.120Z,6.50
2018-02-04T01:20:25.105Z,6.90
2018-02-04T01:21:25.090Z,7.10
2018-02-04T01:22:25.076Z,7.40
2018-02-04T01:23:25.061Z,9.60
2018-02-04T01:24:25.046Z,8.20
2018-02-04T01:25:25.031Z,9.00
2018-02-04T01:26:25.016Z,10.00
2018-02-04T01:27:25.000Z,8.30
2018-02-04T01:28:24.985Z,8.60
2018-02-04T01:29:24.970Z,8.80
2018-02-04T01:30:24.954Z,8.40
2018-02-04T01:31:24.939Z,7.70
2018-02-04T01:32:24.923Z,8.80
2018-02-04T01:33:24.907Z,9.30
2018-02-04T01:34:24.892Z,8.80
2018-02-04T01:35:24.878Z,9.60
2018-02-04T01:36:24.862Z,8.80
2018-02-04T01:37:24.854Z,8.90
2018-02-04T01:38:24.832Z,8.40
2018-02-04T01:39:24.816Z,8.10
2018-02-04T01:40:24.799Z,9.10
2018-02-04T01:41:24.782Z,8.80
2018-02-04T01:42:24.768Z,7.40
2018-02-04T01:43:24.752Z,8.10
2018-02-04T01:44:24.738Z,7.60
2018-02-04T01:45:24.725Z,7.60
2018-02-04T01:46:24.706Z,7.90
2018-02-04T01:47:24.691Z,6.90
2018-02-04T01:48:24.677Z,8.50
2018-02-04T01:49:24.660Z,7.60
2018-02-04T01:50:24.645Z,7.40
2018-02-04T01:51:24.629Z,7.40
2018-02-04T01:52:24.613Z,7.40
2018-02-04T01:53:24.597Z,6.90
2018-02-04T01:54:24.583Z,7.00
2018-02-04T01:55:24.567Z,6.40
2018-02-04T01:56:24.551Z,5.70
2018-02-04T01:57:24.533Z,7.40
2018-02-04T01:58:24.518Z,5.70
2018-02-04T01:59:24.504Z,5.80
2018-02-04T02:00:24.488Z,7.40
2018-02-04T02:01:24.471Z,6.90
2018-02-04T02:02:24.456Z,7.50
2018-02-04T02:03:24.440Z,5.90
2018-02-04T02:04:24.424Z,7.40
2018-02-04T02:05:24.407Z,6.20
2018-02-04T02:06:24.391Z,7.40
2018-02-04T02:07:24.377Z,6.60
2018-02-04T02:08:24.361Z,7.10
2018-02-04T02:09:24.343Z,6.60
2018-02-04T02:10:24.329Z,6.60
2018-02-04T02:11:24.313Z,7.70
2018-02-04T02:12:24.298Z,6.80
2018-02-04T02:13:24.281Z,6.50
2018-02-04T02:14:24.265Z,8.00
2018-02-04T02:15:24.249Z,7.60
2018-02-04T02:16:24.235Z,7.40
2018-02-04T02:17:24.217Z,7.40
2018-02-04T02:18:24.203Z,7.00
2018-02-04T02:19:24.186Z,6.10
2018-02-04T02:20:24.171Z,5.10
2018-02-04T02:21:24.196Z,6.90
2018-02-04T02:22:24.138Z,6.40
2018-02-04T02:23:24.123Z,6.70
2018-02-04T02:24:24.111Z,6.50
2018-02-04T02:25:24.090Z,7.60
2018-02-04T02:26:24.075Z,6.00
2018-02-04T02:27:24.060Z,5.80
2018-02-04T02:28:24.043Z,6.70
2018-02-04T02:29:24.026Z,5.50
2018-02-04T02:30:24.011Z,7.10
2018-02-04T02:31:23.996Z,6.00
2018-02-04T02:32:23.980Z,4.50
2018-02-04T02:33:23.965Z,6.10
2018-02-04T02:34:23.948Z,6.00
2018-02-04T02:35:23.931Z,4.70
2018-02-04T02:36:23.917Z,4.70
2018-02-04T02:37:23.900Z,6.30
2018-02-04T02:38:23.884Z,5.50
2018-02-04T02:39:23.876Z,6.20
2018-02-04T02:40:23.854Z,4.60
2018-02-04T02:41:23.836Z,5.40
2018-02-04T02:42:23.832Z,5.90
2018-02-04T02:43:23.804Z,6.20
2018-02-04T02:44:23.789Z,5.90
2018-02-04T02:45:23.771Z,5.50
2018-02-04T02:46:23.755Z,5.30
2018-02-04T02:47:23.740Z,6.30
2018-02-04T02:48:23.724Z,6.00
2018-02-04T02:49:23.707Z,5.00
2018-02-04T02:50:23.690Z,5.20
2018-02-04T02:51:23.674Z,7.00
2018-02-04T02:52:23.659Z,6.60
2018-02-04T02:53:23.641Z,7.60
2018-02-04T02:54:23.631Z,6.40
2018-02-04T02:55:23.609Z,5.80
2018-02-04T02:56:23.594Z,7.50
2018-02-04T02:57:23.577Z,6.20
2018-02-04T02:58:23.562Z,6.00
2018-02-04T02:59:23.546Z,6.90
2018-02-04T03:00:23.531Z,5.70
2018-02-04T03:01:23.513Z,6.10
2018-02-04T03:02:23.498Z,6.30
2018-02-04T03:03:23.483Z,4.30
2018-02-04T03:04:23.466Z,6.30
2018-02-04T03:05:23.449Z,5.00
2018-02-04T03:06:23.433Z,4.90
2018-02-04T03:07:23.418Z,5.40
2018-02-04T03:08:23.402Z,5.40
2018-02-04T03:09:23.386Z,5.20
2018-02-04T03:10:23.370Z,5.70
2018-02-04T03:11:23.354Z,5.60
2018-02-04T03:12:23.338Z,5.10
2018-02-04T03:13:23.321Z,6.00
2018-02-04T03:14:23.306Z,4.20
2018-02-04T03:15:23.290Z,5.40
2018-02-04T03:16:23.274Z,6.10
2018-02-04T03:17:23.258Z,4.90
2018-02-04T03:18:23.242Z,5.20
2018-02-04T03:19:23.226Z,5.50
2018-02-04T03:20:23.211Z,5.80
2018-02-04T03:21:23.194Z,4.90
2018-02-04T03:22:23.181Z,5.00
2018-02-04T03:23:23.162Z,4.70
2018-02-04T03:24:23.147Z,4.70
2018-02-04T03:25:23.130Z,3.60
2018-02-04T03:26:23.115Z,4.50
2018-02-04T03:27:23.099Z,4.10
2018-02-04T03:28:23.083Z,4.20
2018-02-04T03:29:23.068Z,4.40
2018-02-04T03:30:23.054Z,3.50
2018-02-04T03:31:23.037Z,4.20
2018-02-04T03:32:23.020Z,4.50
2018-02-04T03:33:23.003Z,4.60
2018-02-04T03:34:22.987Z,4.30
2018-02-04T03:35:22.971Z,3.90
2018-02-04T03:36:22.956Z,2.90
2018-02-04T03:37:22.938Z,4.90
2018-02-04T03:38:22.923Z,4.00
2018-02-04T03:39:22.908Z,3.50
2018-02-04T03:40:22.892Z,4.30
2018-02-04T03:41:22.875Z,4.10
2018-02-04T03:42:22.859Z,3.80
2018-02-04T03:43:22.842Z,3.40
2018-02-04T03:44:22.828Z,3.30
2018-02-04T03:45:22.810Z,2.90
2018-02-04T03:46:22.795Z,3.60
2018-02-04T03:47:22.780Z,3.90
2018-02-04T03:48:22.764Z,3.60
2018-02-04T03:49:22.747Z,3.10
2018-02-04T03:50:22.731Z,2.90
2018-02-04T03:51:22.716Z,3.80
2018-02-04T03:52:22.700Z,3.60
2018-02-04T03:53:22.682Z,2.70
2018-02-04T03:54:22.668Z,2.80
2018-02-04T03:55:22.651Z,3.50
2018-02-04T03:56:22.634Z,3.50
2018-02-04T03:57:22.618Z,3.10
2018-02-04T03:58:22.602Z,3.00
2018-02-04T03:59:22.586Z,3.00
2018-02-04T04:00:22.573Z,3.30
2018-02-04T04:01:22.553Z,3.10
2018-02-04T04:02:22.537Z,3.20
2018-02-04T04:03:22.521Z,2.60
2018-02-04T04:04:22.505Z,2.80
2018-02-04T04:05:22.488Z,3.30
2018-02-04T04:06:22.472Z,3.30
2018-02-04T04:07:22.457Z,3.60
2018-02-04T04:08:22.441Z,2.30
2018-02-04T04:09:22.425Z,3.60
2018-02-04T04:10:22.409Z,2.90
2018-02-04T04:11:22.393Z,3.60
2018-02-04T04:12:22.379Z,3.70
2018-02-04T04:13:22.361Z,3.00
2018-02-04T04:14:22.345Z,3.60
2018-02-04T04:15:22.336Z,3.90
2018-02-04T04:16:22.313Z,3.90
2018-02-04T04:17:22.297Z,4.10
2018-02-04T04:18:22.280Z,3.60
2018-02-04T04:19:22.271Z,3.10
2018-02-04T04:20:22.248Z,3.70
2018-02-04T04:21:22.232Z,4.10
2018-02-04T04:22:22.216Z,3.10
2018-02-04T04:23:22.200Z,3.50
2018-02-04T04:24:22.185Z,3.90
2018-02-04T04:25:22.169Z,3.90
2018-02-04T04:26:22.151Z,3.50
2018-02-04T04:27:22.136Z,3.40
2018-02-04T04:28:22.122Z,3.30
2018-02-04T04:29:22.103Z,3.90
2018-02-04T04:30:22.087Z,4.10
2018-02-04T04:31:22.072Z,3.30
2018-02-04T04:32:22.056Z,3.40
2018-02-04T04:33:22.039Z,2.90
2018-02-04T04:34:22.023Z,3.80
2018-02-04T04:35:22.007Z,3.40
2018-02-04T04:36:21.992Z,3.50
2018-02-04T04:37:21.973Z,3.00
2018-02-04T04:38:21.958Z,2.80
2018-02-04T04:39:21.944Z,2.90
2018-02-04T04:40:21.925Z,3.20
2018-02-04T04:41:21.910Z,3.90
2018-02-04T04:42:21.893Z,2.50
2018-02-04T04:43:21.884Z,2.80
2018-02-04T04:44:21.861Z,3.00
2018-02-04T04:45:21.845Z,3.30
2018-02-04T04:46:21.828Z,3.30
2018-02-04T04:47:21.812Z,3.30
2018-02-04T04:48:21.797Z,3.10
2018-02-04T04:49:21.780Z,2.50
2018-02-04T04:50:21.765Z,3.30
2018-02-04T04:51:21.748Z,4.10
2018-02-04T04:52:21.731Z,3.30
2018-02-04T04:53:21.715Z,3.60
2018-02-04T04:54:21.700Z,4.80
2018-02-04T04:55:21.684Z,3.10
2018-02-04T04:56:21.668Z,3.80
2018-02-04T04:57:21.652Z,3.50
2018-02-04T04:58:21.634Z,3.40
2018-02-04T04:59:21.618Z,3.80
2018-02-04T05:00:21.604Z,3.50
2018-02-04T05:01:21.586Z,3.60
2018-02-04T05:02:21.570Z,2.60
2018-02-04T05:03:21.555Z,3.70
2018-02-04T05:04:21.540Z,4.10
2018-02-04T05:05:21.521Z,3.10
2018-02-04T05:06:21.505Z,3.30
2018-02-04T05:07:21.489Z,3.00
2018-02-04T05:08:21.474Z,4.30
2018-02-04T05:09:21.457Z,4.50
2018-02-04T05:10:21.442Z,3.10
2018-02-04T05:11:21.426Z,3.80
2018-02-04T05:12:21.410Z,3.70
2018-02-04T05:13:21.395Z,3.80
2018-02-04T05:14:21.377Z,3.70
2018-02-04T05:15:21.362Z,3.20
2018-02-04T05:16:21.346Z,3.40
2018-02-04T05:17:21.329Z,3.80
2018-02-04T05:18:21.313Z,3.90
2018-02-04T05:19:21.298Z,3.60
2018-02-04T05:20:21.281Z,3.40
2018-02-04T05:21:21.264Z,3.40
2018-02-04T05:22:21.247Z,3.00
2018-02-04T05:23:21.231Z,2.80
2018-02-04T05:24:21.216Z,2.90
2018-02-04T05:25:21.198Z,2.70
2018-02-04T05:26:21.182Z,2.30
2018-02-04T05:27:21.168Z,2.60
2018-02-04T05:28:21.150Z,2.80
2018-02-04T05:29:21.141Z,2.50
2018-02-04T05:30:21.118Z,2.20
2018-02-04T05:31:21.102Z,3.40
2018-02-04T05:32:21.085Z,2.70
2018-02-04T05:33:21.068Z,2.30
2018-02-04T05:34:21.053Z,1.80
2018-02-04T05:35:21.036Z,3.20
2018-02-04T05:36:21.020Z,2.70
2018-02-04T05:37:21.003Z,2.00
2018-02-04T05:38:20.987Z,2.90
2018-02-04T05:39:20.971Z,3.10
2018-02-04T05:40:20.954Z,3.50
2018-02-04T05:41:20.938Z,2.70
2018-02-04T05:42:20.922Z,2.10
2018-02-04T05:43:20.912Z,2.40
2018-02-04T05:44:20.890Z,2.60
2018-02-04T05:45:20.872Z,1.80
2018-02-04T05:46:20.857Z,2.60
2018-02-04T05:47:20.839Z,3.50
2018-02-04T05:48:20.824Z,2.40
2018-02-04T05:49:20.806Z,2.70
2018-02-04T05:50:20.790Z,2.00
2018-02-04T05:51:20.773Z,2.10
2018-02-04T05:52:20.758Z,2.30
2018-02-04T05:53:20.740Z,2.70
2018-02-04T05:54:20.723Z,2.20
2018-02-04T05:55:20.708Z,2.20
2018-02-04T05:56:20.691Z,2.70
2018-02-04T05:57:20.674Z,2.40
2018-02-04T05:58:20.658Z,2.20
2018-02-04T05:59:20.642Z,2.20
2018-02-04T06:00:20.626Z,1.70
2018-02-04T06:01:20.608Z,2.20
2018-02-04T06:02:20.592Z,3.40
2018-02-04T06:03:20.576Z,2.40
2018-02-04T06:04:20.559Z,3.00
2018-02-04T06:05:20.542Z,2.60
2018-02-04T06:06:20.526Z,2.40
2018-02-04T06:07:20.511Z,2.00
2018-02-04T06:08:20.495Z,2.20
2018-02-04T06:09:20.477Z,2.60
2018-02-04T06:10:20.461Z,2.40
2018-02-04T06:11:20.444Z,2.30
2018-02-04T06:12:20.429Z,2.00
2018-02-04T06:13:20.413Z,2.00
2018-02-04T06:14:20.395Z,1.70
2018-02-04T06:15:20.379Z,2.40
2018-02-04T06:16:20.362Z,1.80
2018-02-04T06:17:20.345Z,1.90
2018-02-04T06:18:20.330Z,1.80
2018-02-04T06:19:20.313Z,1.90
2018-02-04T06:20:20.296Z,2.20
2018-02-04T06:21:20.280Z,1.70
2018-02-04T06:22:20.265Z,2.30
2018-02-04T06:23:20.248Z,1.80
2018-02-04T06:24:20.232Z,2.00
2018-02-04T06:25:20.215Z,2.10
2018-02-04T06:26:20.200Z,1.40
2018-02-04T06:27:20.182Z,1.30
2018-02-04T06:28:20.167Z,1.40
2018-02-04T06:29:20.150Z,1.30
2018-02-04T06:30:20.134Z,2.10
2018-02-04T06:31:20.117Z,2.10
2018-02-04T06:32:20.101Z,1.70
2018-02-04T06:33:20.087Z,1.60
2018-02-04T06:34:20.067Z,1.30
2018-02-04T06:35:20.051Z,2.00
2018-02-04T06:36:20.035Z,1.50
2018-02-04T06:37:20.026Z,1.60
2018-02-04T06:38:20.001Z,1.60
2018-02-04T06:39:19.985Z,1.70
2018-02-04T06:40:19.971Z,2.10
2018-02-04T06:41:19.953Z,1.50
2018-02-04T06:42:19.935Z,2.00
2018-02-04T06:43:19.938Z,1.10
2018-02-04T06:44:19.902Z,1.30
2018-02-04T06:45:19.884Z,2.20
2018-02-04T06:46:19.868Z,1.40
2018-02-04T06:47:19.851Z,1.30
2018-02-04T06:48:19.835Z,1.80
2018-02-04T06:49:19.818Z,1.70
2018-02-04T06:50:19.803Z,1.90
2018-02-04T06:51:19.786Z,1.40
2018-02-04T06:52:19.768Z,1.40
2018-02-04T06:53:19.752Z,0.70
2018-02-04T06:54:19.739Z,1.60
2018-02-04T06:55:19.719Z,1.40
2018-02-04T06:56:19.703Z,1.20
2018-02-04T06:57:19.686Z,1.70
2018-02-04T06:58:19.669Z,1.20
2018-02-04T06:59:19.653Z,0.90
2018-02-04T07:00:19.639Z,1.00
2018-02-04T07:01:19.620Z,0.70
2018-02-04T07:02:19.607Z,1.50
2018-02-04T07:03:19.586Z,1.60
2018-02-04T07:04:19.571Z,1.00
2018-02-04T07:05:19.568Z,1.50
2018-02-04T07:06:19.536Z,0.80
2018-02-04T07:07:19.521Z,1.40
2018-02-04T07:08:19.507Z,0.60
2018-02-04T07:09:19.486Z,1.10
2018-02-04T07:10:19.470Z,1.20
2018-02-04T07:11:19.455Z,1.40
2018-02-04T07:12:19.438Z,1.10
2018-02-04T07:13:19.421Z,0.90
2018-02-04T07:14:19.405Z,1.20
2018-02-04T07:15:19.388Z,0.80
2018-02-04T07:16:19.373Z,1.50
2018-02-04T07:17:19.355Z,1.20
2018-02-04T07:18:19.338Z,1.20
2018-02-04T07:19:19.323Z,0.80
2018-02-04T07:20:19.308Z,1.40
2018-02-04T07:21:19.290Z,1.10
2018-02-04T07:22:19.275Z,1.50
2018-02-04T07:23:19.259Z,1.50
2018-02-04T07:24:19.243Z,0.80
2018-02-04T07:25:19.225Z,1.30
2018-02-04T07:26:19.209Z,0.70
2018-02-04T07:27:19.193Z,1.10
2018-02-04T07:28:19.177Z,1.30
2018-02-04T07:29:19.160Z,1.10
2018-02-04T07:30:19.145Z,1.10
2018-02-04T07:31:19.128Z,1.10
2018-02-04T07:32:19.114Z,1.10
2018-02-04T07:33:19.096Z,1.10
2018-02-04T07:34:19.081Z,1.60
2018-02-04T07:35:19.065Z,1.00
2018-02-04T07:36:19.048Z,1.00
2018-02-04T07:37:19.032Z,0.70
2018-02-04T07:38:19.016Z,0.90
2018-02-04T07:39:19.000Z,1.20
2018-02-04T07:40:18.985Z,1.00
2018-02-04T07:41:18.967Z,1.20
2018-02-04T07:42:18.951Z,1.60
2018-02-04T07:43:18.936Z,1.30
2018-02-04T07:44:18.920Z,1.30
2018-02-04T07:45:18.907Z,1.20
2018-02-04T07:46:18.887Z,0.90
2018-02-04T07:47:18.871Z,1.10
2018-02-04T07:48:18.903Z,1.10
2018-02-04T07:49:18.839Z,1.40
2018-02-04T07:50:18.822Z,1.30
2018-02-04T07:51:18.807Z,1.00
2018-02-04T07:52:18.794Z,1.40
2018-02-04T07:53:18.775Z,1.30
2018-02-04T07:54:18.758Z,1.50
2018-02-04T07:55:18.742Z,0.90
2018-02-04T07:56:18.727Z,1.10
2018-02-04T07:57:18.710Z,1.20
2018-02-04T07:58:18.695Z,1.40
2018-02-04T07:59:18.679Z,0.70
2018-02-04T08:00:18.663Z,1.30
2018-02-04T08:01:18.647Z,1.30
2018-02-04T08:02:18.632Z,1.50
2018-02-04T08:03:18.618Z,0.70
2018-02-04T08:04:18.599Z,1.10
2018-02-04T08:05:18.591Z,1.50
2018-02-04T08:06:18.569Z,1.50
2018-02-04T08:07:18.551Z,1.00
2018-02-04T08:08:18.536Z,1.10
2018-02-04T08:09:18.518Z,0.90
2018-02-04T08:10:18.504Z,1.40
2018-02-04T08:11:18.487Z,1.20
2018-02-04T08:12:18.472Z,1.30
2018-02-04T08:13:18.455Z,1.30
2018-02-04T08:14:18.441Z,1.30
2018-02-04T08:15:18.423Z,1.50
2018-02-04T08:16:18.408Z,0.90
2018-02-04T08:17:18.393Z,0.80
2018-02-04T08:18:18.376Z,1.40
2018-02-04T08:19:18.360Z,1.10
2018-02-04T08:20:18.344Z,0.90
2018-02-04T08:21:18.328Z,0.90
2018-02-04T08:22:18.313Z,0.90
2018-02-04T08:23:18.297Z,1.20
2018-02-04T08:24:18.281Z,1.20
2018-02-04T08:25:18.264Z,1.00
2018-02-04T08:26:18.249Z,0.80
2018-02-04T08:27:18.233Z,1.00
2018-02-04T08:28:18.218Z,1.00
2018-02-04T08:29:18.201Z,1.20
2018-02-04T08:30:18.200Z,0.90
2018-02-04T08:31:18.171Z,1.70
2018-02-04T08:32:18.155Z,1.40
2018-02-04T08:33:18.138Z,1.00
2018-02-04T08:34:18.123Z,1.00
2018-02-04T08:35:18.108Z,1.20
2018-02-04T08:36:18.093Z,1.40
2018-02-04T08:37:18.076Z,0.80
2018-02-04T08:38:18.060Z,1.20
2018-02-04T08:39:18.045Z,1.20
2018-02-04T08:40:18.030Z,1.00
2018-02-04T08:41:18.014Z,1.00
2018-02-04T08:42:17.998Z,1.10
2018-02-04T08:43:17.983Z,0.90
2018-02-04T08:44:17.967Z,1.30
2018-02-04T08:45:17.952Z,1.40
2018-02-04T08:46:17.936Z,1.50
2018-02-04T08:47:17.920Z,1.20
2018-02-04T08:48:17.906Z,1.30
2018-02-04T08:49:17.890Z,0.90
2018-02-04T08:50:17.881Z,1.10
2018-02-04T08:51:17.858Z,1.10
2018-02-04T08:52:17.846Z,1.30
2018-02-04T08:53:17.827Z,0.90
2018-02-04T08:54:17.812Z,1.20
2018-02-04T08:55:17.796Z,1.70
2018-02-04T08:56:17.781Z,1.30
2018-02-04T08:57:17.765Z,1.30
2018-02-04T08:58:17.750Z,1.10
2018-02-04T08:59:17.735Z,1.60
2018-02-04T09:00:17.720Z,1.50
2018-02-04T09:01:17.705Z,1.10
2018-02-04T09:02:17.689Z,1.40
2018-02-04T09:03:17.676Z,1.80
2018-02-04T09:04:17.660Z,1.80
2018-02-04T09:05:17.644Z,1.70
2018-02-04T09:06:17.633Z,1.10
2018-02-04T09:07:17.612Z,1.30
2018-02-04T09:08:17.597Z,1.30
2018-02-04T09:09:17.581Z,1.60
2018-02-04T09:10:17.567Z,0.80
2018-02-04T09:11:17.553Z,1.10
2018-02-04T09:12:17.537Z,1.70
2018-02-04T09:13:17.521Z,0.80
2018-02-04T09:14:17.506Z,1.50
2018-02-04T09:15:17.492Z,1.30
2018-02-04T09:16:17.478Z,1.20
2018-02-04T09:17:17.462Z,1.50
2018-02-04T09:18:17.448Z,1.40
2018-02-04T09:19:17.486Z,1.40
2018-02-04T09:20:17.420Z,1.70
2018-02-04T09:21:17.407Z,1.70
2018-02-04T09:22:17.393Z,1.70
2018-02-04T09:23:17.379Z,2.00
2018-02-04T09:24:17.365Z,1.80
2018-02-04T09:25:17.351Z,1.50
2018-02-04T09:26:17.346Z,1.90
2018-02-04T09:27:17.326Z,2.30
2018-02-04T09:28:17.312Z,2.10
2018-02-04T09:29:17.297Z,2.60
2018-02-04T09:30:17.284Z,2.10
2018-02-04T09:31:17.270Z,2.60
2018-02-04T09:32:17.257Z,3.50
2018-02-04T09:33:17.242Z,2.70
2018-02-04T09:34:17.230Z,2.60
2018-02-04T09:35:17.216Z,1.90
2018-02-04T09:36:17.203Z,1.30
2018-02-04T09:37:17.191Z,1.80
2018-02-04T09:38:17.176Z,1.00
2018-02-04T09:39:17.164Z,1.60
2018-02-04T09:40:17.158Z,1.30
2018-02-04T09:41:17.140Z,1.10
2018-02-04T09:42:17.124Z,1.10
2018-02-04T09:43:17.114Z,1.50
2018-02-04T09:44:17.101Z,1.20
2018-02-04T09:45:17.085Z,2.50
2018-02-04T09:46:17.073Z,1.70
2018-02-04T09:47:17.060Z,1.50
2018-02-04T09:48:17.048Z,0.80
2018-02-04T09:49:17.035Z,1.10
2018-02-04T09:50:17.023Z,1.10
2018-02-04T09:51:17.011Z,1.20
2018-02-04T09:52:16.999Z,1.10
2018-02-04T09:53:16.987Z,2.30
2018-02-04T09:54:16.976Z,1.90
2018-02-04T09:55:16.965Z,2.00
2018-02-04T09:56:16.952Z,1.50
2018-02-04T09:57:16.941Z,1.40
2018-02-04T09:58:16.930Z,1.30
2018-02-04T09:59:16.918Z,1.10
2018-02-04T10:00:16.908Z,1.60
2018-02-04T10:01:16.900Z,1.60
2018-02-04T10:02:16.884Z,1.80
2018-02-04T10:03:16.872Z,1.00
2018-02-04T10:04:16.860Z,1.30
2018-02-04T10:05:16.849Z,1.70
2018-02-04T10:06:16.837Z,1.50
2018-02-04T10:07:16.824Z,0.80
2018-02-04T10:08:16.815Z,1.70
2018-02-04T10:09:16.800Z,1.20
2018-02-04T10:10:16.795Z,1.60
2018-02-04T10:11:16.775Z,1.70
2018-02-04T10:12:16.764Z,1.40
2018-02-04T10:13:16.750Z,1.40
2018-02-04T10:14:16.738Z,1.50
2018-02-04T10:15:16.726Z,0.90
2018-02-04T10:16:16.714Z,1.40
2018-02-04T10:17:16.700Z,1.70
2018-02-04T10:18:16.688Z,1.90
2018-02-04T10:19:16.676Z,1.60
2018-02-04T10:20:16.664Z,1.60
2018-02-04T10:21:16.650Z,1.00
2018-02-04T10:22:16.638Z,1.20
2018-02-04T10:23:16.625Z,1.60
2018-02-04T10:24:16.662Z,1.90
2018-02-04T10:25:16.600Z,1.70
2018-02-04T10:26:16.586Z,1.00
2018-02-04T10:27:16.574Z,1.10
2018-02-04T10:28:16.561Z,1.10
2018-02-04T10:29:16.547Z,1.80
2018-02-04T10:30:16.535Z,1.20
2018-02-04T10:31:16.522Z,1.20
2018-02-04T10:32:16.509Z,1.30
2018-02-04T10:33:16.496Z,1.30
2018-02-04T10:34:16.483Z,1.20
2018-02-04T10:35:16.470Z,2.10
2018-02-04T10:36:16.501Z,1.20
2018-02-04T10:37:16.444Z,1.20
2018-02-04T10:38:16.431Z,1.40
2018-02-04T10:39:16.466Z,1.10
2018-02-04T10:40:16.406Z,1.70
2018-02-04T10:41:16.392Z,1.40
2018-02-04T10:42:16.379Z,1.80
2018-02-04T10:43:16.367Z,1.00
2018-02-04T10:44:16.354Z,1.30
2018-02-04T10:45:16.340Z,1.40
2018-02-04T10:46:16.329Z,1.00
2018-02-04T10:47:16.315Z,1.50
2018-02-04T10:48:16.304Z,1.50
2018-02-04T10:49:16.290Z,2.00
2018-02-04T10:50:16.278Z,1.50
2018-02-04T10:51:16.266Z,1.60
2018-02-04T10:52:16.252Z,1.50
2018-02-04T10:53:16.238Z,2.00
2018-02-04T10:54:16.226Z,1.80
2018-02-04T10:55:16.214Z,1.50
2018-02-04T10:56:16.200Z,1.40
2018-02-04T10:57:16.187Z,1.40
2018-02-04T10:58:16.174Z,1.50
2018-02-04T10:59:16.160Z,1.40
2018-02-04T11:00:16.147Z,1.20
2018-02-04T11:01:16.134Z,1.80
2018-02-04T11:02:16.120Z,1.40
2018-02-04T11:03:16.112Z,1.30
2018-02-04T11:04:16.095Z,1.50
2018-02-04T11:05:16.086Z,1.40
2018-02-04T11:06:16.067Z,1.80
2018-02-04T11:07:16.053Z,1.00
2018-02-04T11:08:16.041Z,1.40
2018-02-04T11:09:16.026Z,1.30
2018-02-04T11:10:16.013Z,1.60
2018-02-04T11:11:15.999Z,1.90
2018-02-04T11:12:15.988Z,2.20
2018-02-04T11:13:15.970Z,2.30
2018-02-04T11:14:15.957Z,1.50
2018-02-04T11:15:15.943Z,2.40
2018-02-04T11:16:15.933Z,2.30
2018-02-04T11:17:15.915Z,3.20
2018-02-04T11:18:15.901Z,1.70
2018-02-04T11:19:15.888Z,2.20
2018-02-04T11:20:15.874Z,1.50
2018-02-04T11:21:15.859Z,1.50
2018-02-04T11:22:15.845Z,0.70
2018-02-04T11:23:15.831Z,1.40
2018-02-04T11:24:15.817Z,1.40
2018-02-04T11:25:15.803Z,1.20
2018-02-04T11:26:15.789Z,1.30
2018-02-04T11:27:15.775Z,1.10
2018-02-04T11:28:15.761Z,1.30
2018-02-04T11:29:15.746Z,1.40
2018-02-04T11:30:15.743Z,1.80
2018-02-04T11:31:15.723Z,1.20
2018-02-04T11:32:15.705Z,1.20
2018-02-04T11:33:15.690Z,1.30
2018-02-04T11:34:15.676Z,1.80
2018-02-04T11:35:15.663Z,1.70
2018-02-04T11:36:15.648Z,1.10
2018-02-04T11:37:15.633Z,1.70
2018-02-04T11:38:15.619Z,1.30
2018-02-04T11:39:15.605Z,1.60
2018-02-04T11:40:15.591Z,1.90
2018-02-04T11:41:15.576Z,1.20
2018-02-04T11:42:15.562Z,1.40
2018-02-04T11:43:15.549Z,2.30
2018-02-04T11:44:15.534Z,2.80
2018-02-04T11:45:15.518Z,3.30
2018-02-04T11:46:15.505Z,2.00
2018-02-04T11:47:15.495Z,2.50
2018-02-04T11:48:15.476Z,2.30
2018-02-04T11:49:15.461Z,2.70
2018-02-04T11:50:15.446Z,2.70
2018-02-04T11:51:15.432Z,4.10
2018-02-04T11:52:15.417Z,2.30
2018-02-04T11:53:15.402Z,2.50
2018-02-04T11:54:15.388Z,1.40
2018-02-04T11:55:15.373Z,1.60
2018-02-04T11:56:15.359Z,2.40
2018-02-04T11:57:15.344Z,2.00
2018-02-04T11:58:15.329Z,1.80
2018-02-04T11:59:15.314Z,1.40
2018-02-04T12:00:15.301Z,1.30
2018-02-04T12:01:15.286Z,1.70
2018-02-04T12:02:15.272Z,2.50
2018-02-04T12:03:15.258Z,1.30
2018-02-04T12:04:15.243Z,2.20
2018-02-04T12:05:15.233Z,1.90
2018-02-04T12:06:15.215Z,2.40
2018-02-04T12:07:15.228Z,1.70
2018-02-04T12:08:15.184Z,2.40
2018-02-04T12:09:15.170Z,2.00
2018-02-04T12:10:15.154Z,1.60
2018-02-04T12:11:15.140Z,2.20
2018-02-04T12:12:15.127Z,1.40
2018-02-04T12:13:15.109Z,1.00
2018-02-04T12:14:15.096Z,2.00
2018-02-04T12:15:15.081Z,1.30
2018-02-04T12:16:15.066Z,1.30
2018-02-04T12:17:15.062Z,2.20
2018-02-04T12:18:15.037Z,1.50
2018-02-04T12:19:15.022Z,1.60
2018-02-04T12:20:15.007Z,1.60
2018-02-04T12:21:14.991Z,2.20
2018-02-04T12:22:14.977Z,1.60
2018-02-04T12:23:14.962Z,2.00
2018-02-04T12:24:14.957Z,1.90
2018-02-04T12:25:14.931Z,1.60
2018-02-04T12:26:14.916Z,1.60
2018-02-04T12:27:14.904Z,1.60
2018-02-04T12:28:14.887Z,1.50
2018-02-04T12:29:14.871Z,1.30
2018-02-04T12:30:14.856Z,2.30
2018-02-04T12:31:14.841Z,2.00
2018-02-04T12:32:14.826Z,1.40
2018-02-04T12:33:14.811Z,2.30
2018-02-04T12:34:14.795Z,0.90
2018-02-04T12:35:14.781Z,1.60
2018-02-04T12:36:14.767Z,1.90
2018-02-04T12:37:14.750Z,1.60
2018-02-04T12:38:14.737Z,2.50
2018-02-04T12:39:14.722Z,1.60
2018-02-04T12:40:14.707Z,2.00
2018-02-04T12:41:14.692Z,1.10
2018-02-04T12:42:14.676Z,2.00
2018-02-04T12:43:14.662Z,1.80
2018-02-04T12:44:14.647Z,2.00
2018-02-04T12:45:14.632Z,1.30
2018-02-04T12:46:14.618Z,1.80
2018-02-04T12:47:14.604Z,2.30
2018-02-04T12:48:14.589Z,1.50
2018-02-04T12:49:14.572Z,2.20
2018-02-04T12:50:14.561Z,2.30
2018-02-04T12:51:14.545Z,1.40
2018-02-04T12:52:14.530Z,1.90
2018-02-04T12:53:14.514Z,1.90
2018-02-04T12:54:14.501Z,1.60
2018-02-04T12:55:14.487Z,2.10
2018-02-04T12:56:14.492Z,2.20
2018-02-04T12:57:14.456Z,2.10
2018-02-04T12:58:14.445Z,2.60
2018-02-04T12:59:14.428Z,1.90
2018-02-04T13:00:14.414Z,2.10
2018-02-04T13:01:14.398Z,1.60
2018-02-04T13:02:14.385Z,2.80
2018-02-04T13:03:14.369Z,1.50
2018-02-04T13:04:14.355Z,1.70
2018-02-04T13:05:14.339Z,2.00
2018-02-04T13:06:14.326Z,1.60
2018-02-04T13:07:14.310Z,1.90
2018-02-04T13:08:14.296Z,2.40
2018-02-04T13:09:14.281Z,2.00
2018-02-04T13:10:14.267Z,1.80
2018-02-04T13:11:14.253Z,3.10
2018-02-04T13:12:14.238Z,2.40
2018-02-04T13:13:14.223Z,1.60
2018-02-04T13:14:14.209Z,2.60
2018-02-04T13:15:14.195Z,2.70
2018-02-04T13:16:14.180Z,2.40
2018-02-04T13:17:14.164Z,2.20
2018-02-04T13:19:14.135Z,1.60